ADDS METAR Data INFO
IDs: Format: Raw Decoded Include TAF

Data at: 2052 UTC 24 Jun 2018

KSWW 242035Z AUTO 14010G27KT 10SM CLR 40/14 A2978 RMK AO2 LTG DSNT N T03970142
KSWW 242015Z AUTO 14011G20KT 10SM CLR 40/15 A2979 RMK AO2 T03950149
KSWW 241955Z AUTO 16015G22KT 10SM CLR 39/15 A2979 RMK AO2 LTG DSNT N T03900152
KSWW 241935Z AUTO 18011G19KT 10SM CLR 38/15 A2979 RMK AO2 T03810148
KSWW 241915Z AUTO 18013G17KT 10SM CLR 38/15 A2981 RMK AO2 T03750152
KSWW 241855Z AUTO 20013KT 10SM CLR 37/15 A2981 RMK AO2 T03730153
KSWW 241835Z AUTO 21012G20KT 10SM CLR 36/16 A2982 RMK AO2 T03630160
KSWW 241815Z AUTO 19013G23KT 10SM CLR 37/16 A2982 RMK AO2 T03650162
KSWW 241755Z AUTO 20014G25KT 10SM CLR 35/17 A2983 RMK AO2 T03520167 10354 20260
KSWW 241735Z AUTO 20010G18KT 10SM CLR 35/18 A2984 RMK AO2 T03470178
KSWW 241715Z AUTO 16013G23KT 10SM CLR 34/18 A2984 RMK AO2 T03430182
KSWW 241655Z AUTO 18017G22KT 10SM CLR 34/18 A2983 RMK AO2 T03400183
KSWW 241635Z AUTO 16012G19KT 10SM CLR 33/19 A2984 RMK AO2 T03310187
KSWW 241615Z AUTO 18016G27KT 10SM CLR 33/19 A2982 RMK AO2 T03290189
KSWW 241555Z AUTO 18023G28KT 10SM CLR 32/19 A2981 RMK AO2 T03230188
KSWW 241535Z AUTO 18024G29KT 10SM CLR 32/19 A2981 RMK AO2 T03190190
KSWW 241515Z AUTO 18023G30KT 10SM CLR 31/19 A2981 RMK AO2 T03110191
KSWW 241455Z AUTO 18020G30KT 10SM CLR 30/19 A2980 RMK AO2 T03040194
KSWW 241435Z AUTO 18026G32KT 10SM CLR 30/20 A2980 RMK AO2 T02960197
KSWW 241415Z AUTO 18024G32KT 10SM CLR 29/20 A2980 RMK AO2 T02920201
KSWW 241355Z AUTO 18027G32KT 10SM CLR 29/20 A2981 RMK AO2 T02860201
KSWW 241335Z AUTO 18025G30KT 10SM CLR 28/20 A2981 RMK AO2 T02800201
KSWW 241315Z AUTO 17022G28KT 10SM CLR 27/20 A2980 RMK AO2 T02720203
KSWW 241255Z AUTO 17022G29KT 10SM CLR 27/21 A2980 RMK AO2 T02660205
KSWW 241235Z AUTO 18021G27KT 10SM CLR 26/21 A2979 RMK AO2 T02620205
KSWW 241215Z AUTO 18021G26KT 10SM CLR 26/21 A2979 RMK AO2 T02600206
KSWW 241155Z AUTO 19022G30KT 10SM CLR 26/21 A2979 RMK AO2 70004 T02600207 10282 20260
KSWW 241135Z AUTO 18020G26KT 10SM CLR 26/21 A2979 RMK AO2 T02600210
KSWW 241115Z AUTO 18019G26KT 10SM CLR 26/21 A2978 RMK AO2 T02620210
KSWW 241055Z AUTO 19020G24KT 10SM CLR 26/21 A2978 RMK AO2 T02620207
KSWW 241035Z AUTO 18018G26KT 10SM CLR 27/21 A2978 RMK AO2 T02650206
KSWW 241015Z AUTO 18017G21KT 10SM CLR 27/21 A2978 RMK AO2 T02650205
KSWW 240955Z AUTO 17017G20KT 10SM CLR 27/21 A2979 RMK AO2 T02650205
KSWW 240935Z AUTO 17016G23KT 10SM CLR 27/20 A2979 RMK AO2 T02670202
KSWW 240915Z AUTO 16016G21KT 10SM CLR 27/20 A2980 RMK AO2 T02660198
KSWW 240855Z AUTO 16018G22KT 10SM CLR 27/20 A2980 RMK AO2 T02690196
KSWW 240835Z AUTO 16019G24KT 10SM CLR 27/20 A2980 RMK AO2 T02700195
KSWW 240815Z AUTO 15022G28KT 10SM CLR 27/19 A2980 RMK AO2 T02700193
KSWW 240755Z AUTO 15016G23KT 10SM CLR 27/19 A2980 RMK AO2 T02710189
KSWW 240735Z AUTO 15020G26KT 10SM CLR 28/18 A2981 RMK AO2 T02750184
KSWW 240715Z AUTO 16019G29KT 10SM CLR 28/17 A2981 RMK AO2 T02780169
KSWW 240655Z AUTO 15016G22KT 10SM CLR 28/13 A2981 RMK AO2 T02810125
KSWW 240635Z AUTO 15017G22KT 10SM CLR 28/11 A2981 RMK AO2 LTG DSNT SE T02790112
KSWW 240615Z AUTO 16016G21KT 10SM CLR 28/11 A2981 RMK AO2 T02820106
KSWW 240555Z AUTO 16012KT 10SM CLR 28/11 A2981 RMK AO2 60004 T02810106 10387 20262 404050259
KSWW 240535Z AUTO 16012KT 10SM CLR 26/13 A2980 RMK AO2 LTG DSNT E T02630128
KSWW 240515Z AUTO 13008KT 10SM CLR 27/13 A2979 RMK AO2 T02660133
KSWW 240455Z AUTO 12009KT 10SM CLR 27/13 A2980 RMK AO2 LTG DSNT SE T02720125
KSWW 240435Z AUTO 15011KT 10SM CLR 27/13 A2981 RMK AO2 LTG DSNT E AND SE T02670131
KSWW 240415Z AUTO 15014KT 10SM CLR 27/13 A2980 RMK AO2 T02700129
KSWW 240355Z AUTO 16013KT 10SM VCTS CLR 27/14 A2982 RMK AO2 LTG DSNT NE AND SE P0002 T02740137
KSWW 240335Z AUTO 00000KT 10SM TS CLR 27/21 A2979 RMK AO2 LTG DSNT E P0002 T02670207
KSWW 240315Z AUTO 01006KT 7SM TS CLR 27/20 A2977 RMK AO2 LTG DSNT ALQS P0002 T02690201
KSWW 240255Z AUTO 04016G23KT 10SM TS CLR 28/20 A2976 RMK AO2 LTG DSNT NE THRU S P0001 60002 T02800199
KSWW 240235Z AUTO 36005KT 10SM CLR 29/21 A2972 RMK AO2 LTG DSNT N THRU SE T02860205
KSWW 240215Z AUTO 31007KT 10SM VCTS CLR 32/18 A2967 RMK AO2 LTG DSNT ALQS T03170181
KSWW 240155Z AUTO 25009KT 10SM VCTS SCT050 SCT075 SCT090 31/21 A2967 RMK AO2 LTG DSNT ALQS T03090210
KSWW 240135Z AUTO 24010G14KT 10SM TS SCT065 SCT080 SCT110 30/21 A2971 RMK AO2 LTG DSNT ALQS T03010212
KSWW 240115Z AUTO 36004KT 10SM TS SCT050 SCT065 BKN080 29/21 A2972 RMK AO2 LTG DSNT ALQS T02940206
KSWW 240055Z AUTO 16006KT 10SM TS SCT070 SCT080 36/16 A2970 RMK AO2 LTG DSNT ALQS P0001 T03590159
KSWW 240035Z AUTO 13011G16KT 10SM TS CLR 38/14 A2969 RMK AO2 LTG DSNT ALQS T03750142
KSWW 240015Z AUTO 14011KT 10SM CLR 38/14 A2969 RMK AO2 LTG DSNT SW AND W T03800140
KSWW 232355Z AUTO 16010G14KT 10SM SCT090 39/14 A2969 RMK AO2 LTG DSNT SW AND W T03880139 10405 20354
KSWW 232335Z AUTO 16009G15KT 10SM SCT090 40/14 A2970 RMK AO2 LTG DSNT SW T03960140
KSWW 232315Z AUTO 16012G17KT 140V200 10SM SCT090 SCT120 40/14 A2971 RMK AO2 T04020141
KSWW 232255Z AUTO 13012G18KT 10SM SCT090 SCT120 40/14 A2972 RMK AO2 T04010142
KSWW 232235Z AUTO 16009G17KT 10SM BKN100 39/15 A2973 RMK AO2 T03920145
KSWW 232215Z AUTO 16010G17KT 10SM SCT090 BKN110 40/15 A2974 RMK AO2 T03970149
KSWW 232155Z AUTO 15010G18KT 10SM BKN090 39/16 A2975 RMK AO2 T03920155
KSWW 232135Z AUTO 15016G20KT 10SM SCT080 BKN090 39/16 A2975 RMK AO2 T03900156
KSWW 232115Z AUTO 13012G15KT 10SM SCT090 39/16 A2975 RMK AO2 T03900159
KSWW 232055Z AUTO 18008G18KT 150V230 10SM SCT075 SCT090 38/16 A2976 RMK AO2 T03770159
KSWW 232035Z AUTO 19013G17KT 10SM SCT075 SCT085 38/16 A2977 RMK AO2 T03840164
KSWW 232015Z AUTO 18009G19KT 10SM CLR 38/17 A2977 RMK AO2 T03800166
KSWW 231955Z AUTO 15011G19KT 10SM SCT070 38/17 A2978 RMK AO2 T03790167
KSWW 231935Z AUTO 17010G21KT 10SM CLR 37/17 A2978 RMK AO2 T03710169
KSWW 231915Z AUTO 18012G21KT 140V200 10SM SCT070 38/17 A2980 RMK AO2 T03770168
KSWW 231855Z AUTO 16011G15KT 10SM SCT065 36/17 A2980 RMK AO2 T03620171
KSWW 231835Z AUTO 17008G18KT 10SM CLR 36/17 A2981 RMK AO2 T03620172
KSWW 231815Z AUTO 17017G21KT 10SM CLR 36/18 A2981 RMK AO2 T03610177
KSWW 231755Z AUTO 18016G20KT 10SM CLR 35/18 A2981 RMK AO2 T03540176 10354 20262
KSWW 231735Z AUTO 18017G20KT 10SM CLR 35/19 A2982 RMK AO2 T03500185
KSWW 231715Z AUTO 16017G22KT 10SM CLR 34/19 A2983 RMK AO2 T03430188
KSWW 231655Z AUTO 15012G23KT 10SM CLR 33/19 A2983 RMK AO2 T03320189
KSWW 231635Z AUTO 14016G21KT 10SM CLR 33/19 A2983 RMK AO2 T03270194
KSWW 231615Z AUTO 16015G20KT 10SM CLR 32/19 A2984 RMK AO2 T03210194
KSWW 231555Z AUTO 17013G19KT 10SM CLR 32/20 A2985 RMK AO2 T03160195
KSWW 231535Z AUTO 15015KT 10SM CLR 31/20 A2984 RMK AO2 T03060195
KSWW 231515Z AUTO 16014G20KT 10SM CLR 30/20 A2986 RMK AO2 T03020195
KSWW 231455Z AUTO 16013G21KT 10SM CLR 29/20 A2985 RMK AO2 T02930195
KSWW 231435Z AUTO 17012KT 10SM CLR 29/19 A2987 RMK AO2 T02900194
KSWW 231415Z AUTO 14013G19KT 10SM CLR 28/19 A2985 RMK AO2 T02840193
KSWW 231355Z AUTO 15014G18KT 10SM CLR 27/19 A2984 RMK AO2 T02740191
KSWW 231335Z AUTO 15015G22KT 10SM CLR 28/19 A2983 RMK AO2 T02760188
KSWW 231315Z AUTO 14012G15KT 10SM CLR 27/19 A2984 RMK AO2 T02730185
KSWW 231255Z AUTO 15012G17KT 10SM CLR 27/18 A2983 RMK AO2 LTG DSNT NE T02700182
KSWW 231235Z AUTO 12008KT 10SM CLR 27/18 A2984 RMK AO2 T02680180
KSWW 231215Z AUTO 16012KT 10SM CLR 26/18 A2982 RMK AO2 T02630177
KSWW 231155Z AUTO 10007KT 10SM CLR 26/18 A2984 RMK AO2 T02610176 10305 20259
KSWW 231135Z AUTO 10006KT 10SM CLR 26/18 A2984 RMK AO2 T02600175
KSWW 231115Z AUTO 15011KT 10SM CLR 26/18 A2982 RMK AO2 LTG DSNT NE T02620175
KSWW 231055Z AUTO 16009KT 10SM CLR 26/18 A2982 RMK AO2 T02610175
KSWW 231035Z AUTO 06004G16KT 10SM CLR 27/17 A2983 RMK AO2 T02690173
KSWW 231015Z AUTO 01003KT 10SM CLR 27/17 A2983 RMK AO2 T02710173
KSWW 230955Z AUTO 18017G24KT 10SM CLR 28/17 A2977 RMK AO2 T02750173
KSWW 230935Z AUTO 18021KT 10SM CLR 28/17 A2975 RMK AO2 T02760172
KSWW 230915Z AUTO 18018G26KT 10SM CLR 28/17 A2975 RMK AO2 T02780171
KSWW 230855Z AUTO 17018G24KT 10SM CLR 28/17 A2975 RMK AO2 T02810171